createdAt,value
2023-04-01T00:01:55.268Z,8.90
2023-04-01T00:06:57.939Z,8.90
2023-04-01T00:12:00.315Z,9.30
2023-04-01T00:17:04.177Z,9.40
2023-04-01T00:22:06.646Z,9.50
2023-04-01T00:27:09.316Z,9.10
2023-04-01T00:32:13.025Z,8.90
2023-04-01T00:37:15.099Z,8.90
2023-04-01T00:42:17.266Z,8.90
2023-04-01T00:47:21.015Z,8.80
2023-04-01T00:52:27.197Z,8.70
2023-04-01T00:57:34.545Z,8.70
2023-04-01T01:02:38.309Z,8.60
2023-04-01T01:07:47.559Z,8.70
2023-04-01T01:12:57.867Z,8.70
2023-04-01T01:18:08.695Z,8.70
2023-04-01T01:23:53.105Z,8.60
2023-04-01T01:29:03.734Z,8.70
2023-04-01T01:34:17.937Z,8.70
2023-04-01T01:39:27.790Z,8.70
2023-04-01T01:44:32.326Z,8.60
2023-04-01T01:49:36.054Z,8.60
2023-04-01T01:54:49.556Z,8.70
2023-04-01T01:59:54.224Z,8.70
2023-04-01T02:04:57.174Z,8.80
2023-04-01T02:10:00.700Z,8.80
2023-04-01T02:15:07.642Z,8.70
2023-04-01T02:20:13.674Z,8.50
2023-04-01T02:25:20.218Z,8.50
2023-04-01T02:30:23.391Z,8.50
2023-04-01T02:35:25.782Z,8.40
2023-04-01T02:40:29.600Z,8.60
2023-04-01T02:45:32.116Z,8.80
2023-04-01T02:50:34.531Z,9.00
2023-04-01T02:55:38.223Z,8.90
2023-04-01T03:00:40.619Z,8.70
2023-04-01T03:05:43.307Z,8.60
2023-04-01T03:10:46.818Z,8.70
2023-04-01T03:15:49.136Z,9.10
2023-04-01T03:20:51.382Z,9.00
2023-04-01T03:25:55.268Z,8.90
2023-04-01T03:30:57.333Z,8.60
2023-04-01T03:35:59.699Z,8.50
2023-04-01T03:41:03.680Z,8.30
2023-04-01T03:46:05.579Z,8.30
2023-04-01T03:51:09.834Z,8.10
2023-04-01T03:56:13.705Z,8.30
2023-04-01T04:01:21.899Z,8.20
2023-04-01T04:06:24.269Z,8.10
2023-04-01T04:11:29.275Z,8.00
2023-04-01T04:16:31.571Z,7.90
2023-04-01T04:21:33.844Z,7.90
2023-04-01T04:26:37.711Z,7.70
2023-04-01T04:31:39.583Z,7.60
2023-04-01T04:36:41.975Z,7.70
2023-04-01T04:41:45.554Z,7.70
2023-04-01T04:46:47.679Z,7.70
2023-04-01T04:51:49.704Z,7.60
2023-04-01T04:56:55.522Z,7.60
2023-04-01T05:01:57.795Z,7.70
2023-04-01T05:07:00.161Z,7.70
2023-04-01T05:12:03.384Z,7.80
2023-04-01T05:17:06.204Z,7.70
2023-04-01T05:22:31.234Z,7.70
2023-04-01T05:27:37.375Z,7.60
2023-04-01T05:32:55.180Z,7.70
2023-04-01T05:37:57.376Z,7.70
2023-04-01T05:43:01.766Z,7.90
2023-04-01T05:48:04.019Z,7.90
2023-04-01T05:53:06.470Z,8.10
2023-04-01T05:58:09.886Z,7.90
2023-04-01T06:03:12.178Z,7.90
2023-04-01T06:08:18.995Z,7.90
2023-04-01T06:13:35.986Z,7.90
2023-04-01T06:18:48.567Z,8.00
2023-04-01T06:24:01.553Z,8.00
2023-04-01T06:29:29.957Z,8.30
2023-04-01T06:34:57.542Z,8.30
2023-04-01T06:40:25.442Z,8.50
2023-04-01T06:45:39.410Z,8.60
2023-04-01T06:50:51.547Z,8.60
2023-04-01T06:56:00.146Z,8.90
2023-04-01T07:01:06.193Z,9.00
2023-04-01T07:06:13.146Z,9.10
2023-04-01T07:11:24.087Z,9.90
2023-04-01T07:16:33.333Z,10.20
2023-04-01T07:21:42.483Z,9.30
2023-04-01T07:26:45.637Z,9.10
2023-04-01T07:32:11.908Z,9.40
2023-04-01T07:37:16.913Z,9.20
2023-04-01T07:42:27.597Z,9.00
2023-04-01T07:47:47.511Z,8.80
2023-04-01T07:52:58.605Z,8.80
2023-04-01T07:58:05.741Z,8.80
2023-04-01T08:03:28.663Z,9.00
2023-04-01T08:08:41.848Z,8.80
2023-04-01T08:13:52.999Z,9.00
2023-04-01T08:19:10.626Z,8.90
2023-04-01T08:24:22.871Z,8.80
2023-04-01T08:29:28.620Z,9.00
2023-04-01T08:34:39.043Z,8.90
2023-04-01T08:39:46.467Z,8.90
2023-04-01T08:45:14.853Z,8.90
2023-04-01T08:50:41.907Z,9.10
2023-04-01T08:55:55.114Z,9.30
2023-04-01T09:01:03.794Z,9.40
2023-04-01T09:06:34.563Z,9.80
2023-04-01T09:11:55.767Z,10.10
2023-04-01T09:17:45.681Z,10.30
2023-04-01T09:23:03.127Z,10.40
2023-04-01T09:28:16.388Z,10.30
2023-04-01T09:33:55.871Z,10.60
2023-04-01T09:39:02.203Z,10.40
2023-04-01T09:44:06.721Z,10.00
2023-04-01T09:49:41.226Z,9.90
2023-04-01T09:55:02.305Z,9.90
2023-04-01T10:00:42.540Z,10.00
2023-04-01T10:06:25.391Z,10.20
2023-04-01T10:12:20.093Z,10.40
2023-04-01T10:18:08.211Z,10.30
2023-04-01T10:23:33.016Z,10.00
2023-04-01T10:29:38.030Z,10.10
2023-04-01T10:35:11.247Z,10.10
2023-04-01T10:40:40.488Z,10.00
2023-04-01T10:46:42.084Z,9.90
2023-04-01T10:52:17.667Z,10.10
2023-04-01T10:57:49.873Z,10.00
2023-04-01T11:03:33.463Z,10.10
2023-04-01T11:09:21.701Z,10.10
2023-04-01T11:15:08.988Z,10.30
2023-04-01T11:20:52.633Z,10.40
2023-04-01T11:26:07.256Z,10.40
2023-04-01T11:31:43.489Z,10.60
2023-04-01T11:36:58.049Z,10.80
2023-04-01T11:42:13.623Z,11.10
2023-04-01T11:47:30.288Z,11.10
2023-04-01T11:52:50.196Z,11.20
2023-04-01T11:58:16.800Z,11.40
2023-04-01T12:03:39.642Z,11.60
2023-04-01T12:08:49.316Z,11.60
2023-04-01T12:14:02.250Z,11.30
2023-04-01T12:19:14.421Z,11.50
2023-04-01T12:24:38.487Z,11.60
2023-04-01T12:30:12.930Z,11.70
2023-04-01T12:35:26.802Z,11.70
2023-04-01T12:40:48.334Z,11.40
2023-04-01T12:45:57.005Z,11.30
2023-04-01T12:51:29.123Z,11.30
2023-04-01T12:56:45.577Z,11.50
2023-04-01T13:02:03.211Z,11.90
2023-04-01T13:07:33.349Z,12.10
2023-04-01T13:13:04.463Z,11.90
2023-04-01T13:18:24.551Z,11.90
2023-04-01T13:23:37.543Z,12.10
2023-04-01T13:28:44.315Z,12.00
2023-04-01T13:33:56.616Z,11.90
2023-04-01T13:39:38.325Z,11.80
2023-04-01T13:44:48.381Z,11.60
2023-04-01T13:50:20.375Z,11.50
2023-04-01T13:55:33.881Z,11.40
2023-04-01T14:00:44.969Z,11.60
2023-04-01T14:06:06.766Z,11.70
2023-04-01T14:11:19.044Z,11.80
2023-04-01T14:16:47.759Z,11.90
2023-04-01T14:21:56.774Z,11.90
2023-04-01T14:27:26.196Z,11.90
2023-04-01T14:32:42.193Z,12.10
2023-04-01T14:38:15.151Z,12.10
2023-04-01T14:43:45.795Z,12.30
2023-04-01T14:48:58.369Z,12.30
2023-04-01T14:54:07.001Z,12.20
2023-04-01T14:59:17.758Z,12.00
2023-04-01T15:04:44.588Z,12.10
2023-04-01T15:09:56.462Z,12.00
2023-04-01T15:15:16.894Z,12.10
2023-04-01T15:20:51.576Z,12.10
2023-04-01T15:26:23.430Z,12.00
2023-04-01T15:31:30.924Z,11.90
2023-04-01T15:36:43.875Z,11.90
2023-04-01T15:41:56.217Z,11.80
2023-04-01T15:47:01.003Z,11.60
2023-04-01T15:52:12.943Z,11.50
2023-04-01T15:57:24.258Z,11.40
2023-04-01T16:02:34.769Z,11.40
2023-04-01T16:07:51.148Z,11.30
2023-04-01T16:13:05.745Z,11.20
2023-04-01T16:18:34.537Z,11.20
2023-04-01T16:23:44.970Z,11.60
2023-04-01T16:28:56.257Z,10.10
2023-04-01T16:34:06.427Z,9.70
2023-04-01T16:39:33.463Z,9.60
2023-04-01T16:44:51.181Z,9.50
2023-04-01T16:49:58.986Z,9.50
2023-04-01T16:55:05.440Z,9.40
2023-04-01T17:00:26.301Z,9.40
2023-04-01T17:05:45.717Z,9.30
2023-04-01T17:10:59.525Z,9.30
2023-04-01T17:16:18.329Z,9.30
2023-04-01T17:21:29.573Z,9.30
2023-04-01T17:26:40.518Z,9.50
2023-04-01T17:31:55.622Z,9.60
2023-04-01T17:37:15.934Z,9.30
2023-04-01T17:42:24.467Z,9.10
2023-04-01T17:47:40.613Z,9.20
2023-04-01T17:52:50.255Z,9.00
2023-04-01T17:57:59.274Z,8.90
2023-04-01T18:03:23.238Z,8.80
2023-04-01T18:08:45.798Z,8.70
2023-04-01T18:14:27.724Z,8.50
2023-04-01T18:19:40.880Z,8.30
2023-04-01T18:24:51.107Z,8.40
2023-04-01T18:29:57.864Z,8.40
2023-04-01T18:35:15.804Z,8.40
2023-04-01T18:40:28.081Z,8.50
2023-04-01T18:45:38.969Z,8.60
2023-04-01T18:50:55.636Z,8.50
2023-04-01T18:56:03.474Z,8.30
2023-04-01T19:01:20.003Z,8.20
2023-04-01T19:06:32.994Z,8.10
2023-04-01T19:11:51.721Z,8.20
2023-04-01T19:17:04.854Z,8.10
2023-04-01T19:22:25.310Z,8.00
2023-04-01T19:27:41.764Z,8.00
2023-04-01T19:32:55.798Z,8.20
2023-04-01T19:38:06.918Z,8.20
2023-04-01T19:43:21.485Z,7.90
2023-04-01T19:48:45.231Z,7.80
2023-04-01T19:53:56.164Z,7.70
2023-04-01T19:59:07.961Z,7.60
2023-04-01T20:04:16.024Z,7.70
2023-04-01T20:09:53.876Z,7.80
2023-04-01T20:15:02.406Z,7.80
2023-04-01T20:20:21.433Z,7.70
2023-04-01T20:25:27.615Z,7.60
2023-04-01T20:30:59.900Z,7.50
2023-04-01T20:36:13.062Z,7.70
2023-04-01T20:41:24.681Z,7.80
2023-04-01T20:46:40.839Z,7.70
2023-04-01T20:51:50.284Z,7.60
2023-04-01T20:57:04.004Z,7.50
2023-04-01T21:02:20.219Z,7.40
2023-04-01T21:07:37.274Z,7.30
2023-04-01T21:12:49.205Z,7.40
2023-04-01T21:18:05.564Z,7.40
2023-04-01T21:23:21.930Z,7.40
2023-04-01T21:28:37.852Z,7.50
2023-04-01T21:33:59.759Z,7.40
2023-04-01T21:39:19.002Z,7.40
2023-04-01T21:44:43.848Z,7.40
2023-04-01T21:50:00.538Z,7.50
2023-04-01T21:55:30.102Z,7.40
2023-04-01T22:05:33.485Z,7.40
2023-04-01T22:10:43.937Z,7.40
2023-04-01T22:15:58.820Z,7.40
2023-04-01T22:21:06.470Z,7.40
2023-04-01T22:26:18.056Z,7.40
2023-04-01T22:31:26.367Z,7.30
2023-04-01T22:36:33.967Z,7.40
2023-04-01T22:41:51.722Z,7.50
2023-04-01T22:47:00.614Z,7.60
2023-04-01T22:52:08.070Z,7.60
2023-04-01T22:57:16.660Z,7.60
2023-04-01T23:02:23.107Z,7.60
2023-04-01T23:07:48.044Z,7.60
2023-04-01T23:12:54.239Z,7.60
2023-04-01T23:18:17.794Z,7.60
2023-04-01T23:23:29.256Z,7.80
2023-04-01T23:28:53.103Z,7.50
2023-04-01T23:33:57.195Z,7.60
2023-04-01T23:39:00.948Z,7.60
2023-04-01T23:44:06.577Z,7.60
2023-04-01T23:49:14.512Z,7.80
2023-04-01T23:54:22.911Z,7.60
2023-04-01T23:59:32.009Z,7.50
